This is the latest recevied weather packets stored in our database for station/object OK2ZI. If no packets are shown the sender has not sent any weather packets the latest 10 day(s).
| Time | Temp. | Humidity | Pressure | Rain* | Wind** | Luminosity | Snow |
|---|---|---|---|---|---|---|---|
| 1777760286 | 6.67° C | 64% | 1017 hPa | 0 mm | - | - | - |
| 1777758846 | 7.22° C | 63% | 1017 hPa | 0 mm | - | - | - |
| 1777754287 | 7.78° C | 68% | 1017 hPa | 0 mm | - | - | - |
| 1777753327 | 8.33° C | 60% | 1017 hPa | 0 mm | - | - | - |
| 1777752967 | 7.78° C | 68% | 1017 hPa | 0 mm | - | - | - |
| 1777752246 | 9.44° C | 62% | 1017 hPa | 0 mm | - | - | - |
| 1777752126 | 10° C | 59% | 1017 hPa | 0 mm | - | - | - |
| 1777752022 | 10° C | 59% | 1017 hPa | 0 mm | - | - | - |
| 1777751527 | 8.89° C | 61% | 1017 hPa | 0 mm | - | - | - |
| 1777750447 | 8.33° C | 68% | 1017 hPa | 0 mm | - | - | - |
| 1777750216 | 11.11° C | 56% | 1017 hPa | 0 mm | - | - | - |
| 1777750085 | 11.11° C | 55% | 1017 hPa | 0 mm | - | - | - |
| 1777749485 | 10.56° C | 58% | 1017 hPa | 0 mm | - | - | - |
| 1777749367 | 10.56° C | 59% | 1017 hPa | 0 mm | - | - | - |
| 1777748887 | 11.11° C | 58% | 1017 hPa | 0 mm | - | - | - |
| 1777748645 | 11.11° C | 59% | 1017 hPa | 0 mm | - | - | - |
| 1777747447 | 12.78° C | 53% | 1017 hPa | 0 mm | - | - | - |
| 1777746845 | 13.33° C | 53% | 1017 hPa | 0 mm | - | - | - |
| 1777746485 | 13.89° C | 49% | 1017 hPa | 0 mm | - | - | - |
| 1777746245 | 14.44° C | 50% | 1017 hPa | 0 mm | - | - | - |
| 1777745527 | 16.11° C | 45% | 1017 hPa | 0 mm | - | - | - |
| 1777745166 | 16.67° C | 45% | 1017 hPa | 0 mm | - | - | - |
| 1777744567 | 18.33° C | 41% | 1017 hPa | 0 mm | - | - | - |
| 1777743966 | 19.44° C | 37% | 1017 hPa | 0 mm | - | - | - |
| 1777743726 | 20° C | 37% | 1017 hPa | 0 mm | - | - | - |
* Rain latest hour (hover to see other rain measurements)
** Current wind speed in m/s (hover to see current wind gust speed)